createdAt,value
2023-03-03T00:01:19.685Z,69.85
2023-03-03T00:03:46.375Z,67.00
2023-03-03T00:06:14.083Z,72.88
2023-03-03T00:08:40.842Z,76.38
2023-03-03T00:11:07.932Z,71.82
2023-03-03T00:13:46.397Z,75.28
2023-03-03T00:16:13.195Z,84.38
2023-03-03T00:18:41.744Z,91.40
2023-03-03T00:21:17.933Z,93.45
2023-03-03T00:23:44.713Z,108.90
2023-03-03T00:26:21.111Z,104.25
2023-03-03T00:28:48.911Z,103.28
2023-03-03T00:31:17.814Z,113.07
2023-03-03T00:33:50.689Z,105.40
2023-03-03T00:36:21.596Z,107.63
2023-03-03T00:38:49.038Z,118.93
2023-03-03T00:41:21.750Z,122.95
2023-03-03T00:43:48.595Z,135.50
2023-03-03T00:46:18.027Z,143.52
2023-03-03T00:48:45.046Z,112.10
2023-03-03T00:51:22.168Z,118.43
2023-03-03T00:53:49.470Z,142.13
2023-03-03T00:56:16.911Z,138.68
2023-03-03T00:58:46.126Z,149.00
2023-03-03T01:01:15.016Z,128.52
2023-03-03T01:03:45.661Z,155.55
2023-03-03T01:06:12.601Z,125.35
2023-03-03T01:08:39.122Z,143.02
2023-03-03T01:11:08.958Z,126.65
2023-03-03T01:13:37.896Z,150.00
2023-03-03T01:16:05.306Z,132.30
2023-03-03T01:18:32.611Z,125.65
2023-03-03T01:21:01.257Z,132.48
2023-03-03T01:23:28.215Z,105.25
2023-03-03T01:25:57.541Z,125.93
2023-03-03T01:28:24.202Z,130.23
2023-03-03T01:30:51.638Z,105.40
2023-03-03T01:33:18.201Z,110.60
2023-03-03T01:35:48.345Z,105.82
2023-03-03T01:38:15.729Z,104.95
2023-03-03T01:40:42.324Z,116.43
2023-03-03T01:43:08.986Z,114.78
2023-03-03T01:45:47.730Z,119.70
2023-03-03T01:48:17.719Z,115.68
2023-03-03T01:50:59.287Z,141.70
2023-03-03T01:53:31.180Z,98.13
2023-03-03T01:55:57.899Z,110.90
2023-03-03T01:58:28.418Z,103.00
2023-03-03T02:01:02.108Z,95.70
2023-03-03T02:03:28.878Z,102.68
2023-03-03T02:05:57.122Z,97.82
2023-03-03T02:08:25.543Z,98.40
2023-03-03T02:10:55.675Z,84.07
2023-03-03T02:13:22.167Z,82.57
2023-03-03T02:15:48.792Z,88.68
2023-03-03T02:18:17.816Z,89.13
2023-03-03T02:20:53.379Z,90.53
2023-03-03T02:23:19.862Z,90.75
2023-03-03T02:25:58.828Z,85.78
2023-03-03T02:28:29.046Z,103.03
2023-03-03T02:30:56.323Z,96.32
2023-03-03T02:33:23.825Z,96.90
2023-03-03T02:35:53.355Z,114.93
2023-03-03T02:38:38.188Z,100.35
2023-03-03T02:41:37.085Z,89.97
2023-03-03T02:44:04.699Z,84.53
2023-03-03T02:46:33.640Z,88.47
2023-03-03T02:49:00.826Z,90.90
2023-03-03T02:51:27.468Z,87.75
2023-03-03T02:53:54.020Z,77.25
2023-03-03T02:56:20.551Z,82.88
2023-03-03T02:58:47.324Z,83.28
2023-03-03T03:01:14.052Z,79.43
2023-03-03T03:03:41.986Z,84.50
2023-03-03T03:06:08.939Z,79.43
2023-03-03T03:08:41.239Z,94.00
2023-03-03T03:11:08.172Z,92.38
2023-03-03T03:13:40.014Z,82.35
2023-03-03T03:16:07.474Z,88.03
2023-03-03T03:18:33.961Z,83.90
2023-03-03T03:21:11.054Z,76.05
2023-03-03T03:23:38.689Z,86.18
2023-03-03T03:26:05.742Z,78.63
2023-03-03T03:28:33.576Z,78.63
2023-03-03T03:31:03.421Z,83.05
2023-03-03T03:33:30.144Z,83.28
2023-03-03T03:35:57.731Z,77.30
2023-03-03T03:38:27.204Z,79.78
2023-03-03T03:40:54.769Z,84.50
2023-03-03T03:43:21.741Z,79.30
2023-03-03T03:45:54.439Z,79.10
2023-03-03T03:48:21.881Z,84.07
2023-03-03T03:50:50.278Z,79.88
2023-03-03T03:53:17.957Z,77.97
2023-03-03T03:55:45.653Z,76.95
2023-03-03T03:58:17.170Z,74.85
2023-03-03T04:00:48.535Z,74.15
2023-03-03T04:03:15.679Z,83.63
2023-03-03T04:05:44.244Z,85.47
2023-03-03T04:08:11.831Z,77.63
2023-03-03T04:10:42.990Z,79.20
2023-03-03T04:13:09.549Z,79.13
2023-03-03T04:15:36.481Z,85.15
2023-03-03T04:18:03.293Z,76.13
2023-03-03T04:20:30.404Z,87.05
2023-03-03T04:22:57.174Z,79.45
2023-03-03T04:25:25.084Z,96.03
2023-03-03T04:27:54.422Z,76.95
2023-03-03T04:30:22.672Z,82.78
2023-03-03T04:32:53.282Z,84.68
2023-03-03T04:35:22.302Z,85.20
2023-03-03T04:37:49.085Z,78.07
2023-03-03T04:40:18.363Z,91.03
2023-03-03T04:42:49.496Z,103.40
2023-03-03T04:45:16.336Z,108.35
2023-03-03T04:47:44.340Z,108.47
2023-03-03T04:50:11.217Z,117.20
2023-03-03T04:52:37.960Z,92.38
2023-03-03T04:55:08.299Z,85.45
2023-03-03T04:57:37.493Z,87.07
2023-03-03T05:00:04.554Z,97.20
2023-03-03T05:02:32.203Z,87.75
2023-03-03T05:04:59.224Z,83.38
2023-03-03T05:07:26.006Z,111.80
2023-03-03T05:09:52.833Z,149.85
2023-03-03T05:12:19.455Z,124.78
2023-03-03T05:14:46.050Z,109.45
2023-03-03T05:17:12.598Z,115.40
2023-03-03T05:19:39.054Z,113.47
2023-03-03T05:22:05.580Z,100.53
2023-03-03T05:24:32.189Z,85.75
2023-03-03T05:26:58.875Z,93.38
2023-03-03T05:29:25.468Z,86.57
2023-03-03T05:31:52.024Z,94.85
2023-03-03T05:34:18.677Z,96.30
2023-03-03T05:36:45.337Z,103.03
2023-03-03T05:39:11.941Z,95.18
2023-03-03T05:41:38.978Z,91.50
2023-03-03T05:44:05.862Z,101.63
2023-03-03T05:46:32.541Z,95.38
2023-03-03T05:48:59.532Z,88.10
2023-03-03T05:51:26.326Z,87.07
2023-03-03T05:53:56.597Z,94.30
2023-03-03T05:56:23.345Z,88.13
2023-03-03T05:58:50.146Z,86.68
2023-03-03T06:01:16.932Z,93.50
2023-03-03T06:03:43.514Z,90.60
2023-03-03T06:06:10.216Z,106.55
2023-03-03T06:08:36.829Z,111.40
2023-03-03T06:11:03.448Z,92.28
2023-03-03T06:13:30.339Z,81.88
2023-03-03T06:15:56.913Z,92.43
2023-03-03T06:18:23.811Z,81.93
2023-03-03T06:20:53.861Z,86.22
2023-03-03T06:23:20.945Z,82.60
2023-03-03T06:25:47.703Z,80.38
2023-03-03T06:28:14.848Z,80.78
2023-03-03T06:30:41.496Z,98.75
2023-03-03T06:33:08.276Z,77.18
2023-03-03T06:35:35.078Z,83.18
2023-03-03T06:38:02.076Z,75.43
2023-03-03T06:40:28.780Z,76.53
2023-03-03T06:42:55.515Z,75.45
2023-03-03T06:45:22.153Z,76.55
2023-03-03T06:47:48.691Z,78.05
2023-03-03T06:50:18.623Z,75.15
2023-03-03T06:52:45.403Z,75.28
2023-03-03T06:55:29.908Z,75.13
2023-03-03T06:57:56.565Z,91.75
2023-03-03T07:00:28.520Z,74.65
2023-03-03T07:02:59.517Z,89.50
2023-03-03T07:05:27.601Z,81.30
2023-03-03T07:07:54.803Z,84.07
2023-03-03T07:10:30.875Z,72.28
2023-03-03T07:13:02.234Z,73.20
2023-03-03T07:15:34.120Z,76.40
2023-03-03T07:18:00.729Z,82.45
2023-03-03T07:20:32.434Z,85.45
2023-03-03T07:22:58.988Z,79.65
2023-03-03T07:25:25.413Z,79.05
2023-03-03T07:27:53.315Z,78.93
2023-03-03T07:30:25.294Z,84.93
2023-03-03T07:32:54.066Z,85.85
2023-03-03T07:35:38.908Z,80.35
2023-03-03T07:38:14.654Z,52.40
2023-03-03T07:40:45.264Z,83.53
2023-03-03T07:43:28.645Z,78.90
2023-03-03T07:46:03.709Z,81.93
2023-03-03T07:48:31.816Z,85.13
2023-03-03T07:51:03.388Z,77.97
2023-03-03T07:53:34.925Z,86.85
2023-03-03T07:56:02.039Z,82.90
2023-03-03T07:58:37.063Z,76.88
2023-03-03T08:01:22.708Z,81.15
2023-03-03T08:03:51.476Z,82.57
2023-03-03T08:06:26.309Z,82.25
2023-03-03T08:08:53.433Z,88.63
2023-03-03T08:11:20.063Z,76.22
2023-03-03T08:13:49.088Z,86.13
2023-03-03T08:16:15.855Z,80.25
2023-03-03T08:18:42.455Z,105.90
2023-03-03T08:21:11.217Z,81.90
2023-03-03T08:23:38.025Z,79.90
2023-03-03T08:26:04.895Z,89.60
2023-03-03T08:28:31.646Z,89.22
2023-03-03T08:31:15.035Z,78.00
2023-03-03T08:33:45.281Z,80.55
2023-03-03T08:36:12.748Z,94.63
2023-03-03T08:38:40.100Z,81.97
2023-03-03T08:41:06.940Z,92.40
2023-03-03T08:43:33.562Z,82.57
2023-03-03T08:46:01.211Z,82.40
2023-03-03T08:48:28.461Z,74.90
2023-03-03T08:50:55.195Z,70.22
2023-03-03T08:53:23.016Z,74.15
2023-03-03T08:55:49.915Z,65.25
2023-03-03T08:58:18.780Z,77.00
2023-03-03T09:00:48.911Z,75.55
2023-03-03T09:03:16.827Z,79.38
2023-03-03T09:05:45.201Z,70.10
2023-03-03T09:08:11.998Z,63.30
2023-03-03T09:10:39.135Z,73.25
2023-03-03T09:13:13.824Z,66.32
2023-03-03T09:15:43.191Z,50.72
2023-03-03T09:18:20.193Z,53.53
2023-03-03T09:20:47.969Z,62.65
2023-03-03T09:23:25.690Z,52.15
2023-03-03T09:25:54.043Z,47.58
2023-03-03T09:28:23.692Z,54.00
2023-03-03T09:30:50.840Z,49.67
2023-03-03T09:33:40.446Z,42.25
2023-03-03T09:36:25.824Z,51.22
2023-03-03T09:38:58.761Z,49.65
2023-03-03T09:41:37.662Z,40.75
2023-03-03T09:44:04.592Z,47.33
2023-03-03T09:46:34.094Z,39.67
2023-03-03T09:49:17.807Z,41.10
2023-03-03T09:52:03.291Z,34.72
2023-03-03T09:54:49.126Z,36.55
2023-03-03T09:57:30.063Z,33.90
2023-03-03T10:00:19.986Z,35.35
2023-03-03T10:02:52.967Z,34.17
2023-03-03T10:05:20.278Z,36.00
2023-03-03T10:07:59.684Z,37.70
2023-03-03T10:10:46.108Z,28.92
2023-03-03T10:13:45.619Z,31.27
2023-03-03T10:16:32.757Z,30.48
2023-03-03T10:19:07.434Z,31.02
2023-03-03T10:21:40.107Z,46.42
2023-03-03T10:24:25.349Z,38.88
2023-03-03T10:27:13.821Z,30.77
2023-03-03T10:30:07.332Z,34.15
2023-03-03T10:32:34.689Z,30.95
2023-03-03T10:35:09.247Z,35.20
2023-03-03T10:37:51.958Z,34.58
2023-03-03T10:40:34.553Z,31.50
2023-03-03T10:43:26.101Z,28.55
2023-03-03T10:46:09.737Z,34.45
2023-03-03T10:48:43.613Z,31.08
2023-03-03T10:51:20.146Z,28.27
2023-03-03T10:54:23.165Z,25.52
2023-03-03T10:57:06.482Z,29.70
2023-03-03T10:59:45.674Z,28.05
2023-03-03T11:02:31.091Z,24.73
2023-03-03T11:05:24.291Z,26.13
2023-03-03T11:08:08.808Z,24.58
2023-03-03T11:10:35.478Z,25.85
2023-03-03T11:13:21.856Z,26.35
2023-03-03T11:15:51.356Z,25.58
2023-03-03T11:18:27.205Z,23.58
2023-03-03T11:21:12.674Z,29.55
2023-03-03T11:23:44.539Z,24.98
2023-03-03T11:26:30.429Z,23.95
2023-03-03T11:29:00.441Z,27.55
2023-03-03T11:31:43.582Z,25.27
2023-03-03T11:34:39.964Z,26.30
2023-03-03T11:37:08.942Z,34.95
2023-03-03T11:39:41.898Z,31.08
2023-03-03T11:42:30.439Z,30.27
2023-03-03T11:45:15.817Z,24.35
2023-03-03T11:48:06.533Z,31.55
2023-03-03T11:50:39.614Z,30.23
2023-03-03T11:53:24.378Z,31.70
2023-03-03T11:55:59.230Z,25.30
2023-03-03T11:58:26.717Z,25.55
2023-03-03T12:01:12.808Z,25.85
2023-03-03T12:03:52.555Z,23.27
2023-03-03T12:06:52.052Z,28.65
2023-03-03T12:09:18.963Z,29.33
2023-03-03T12:11:54.429Z,34.53
2023-03-03T12:14:38.006Z,31.15
2023-03-03T12:17:16.707Z,29.05
2023-03-03T12:20:14.224Z,32.85
2023-03-03T12:23:06.968Z,31.15
2023-03-03T12:25:36.341Z,36.10
2023-03-03T12:28:21.203Z,38.00
2023-03-03T12:31:06.665Z,41.03
2023-03-03T12:36:18.846Z,45.70
2023-03-03T12:38:51.216Z,61.33
2023-03-03T12:41:20.849Z,64.57
2023-03-03T12:43:53.049Z,47.13
2023-03-03T12:46:29.650Z,51.13
2023-03-03T12:48:56.853Z,51.47
2023-03-03T12:51:42.248Z,54.20
2023-03-03T12:54:27.672Z,52.38
2023-03-03T12:57:06.535Z,57.22
2023-03-03T12:59:59.977Z,61.38
2023-03-03T13:02:27.109Z,56.78
2023-03-03T13:05:00.961Z,50.97
2023-03-03T13:07:51.629Z,52.45
2023-03-03T13:10:18.615Z,46.63
2023-03-03T13:12:48.195Z,46.53
2023-03-03T13:15:32.657Z,51.65
2023-03-03T13:20:27.251Z,55.15
2023-03-03T13:23:05.137Z,54.92
2023-03-03T13:25:55.478Z,59.42
2023-03-03T13:28:31.551Z,62.75
2023-03-03T13:31:03.135Z,59.42
2023-03-03T13:33:34.898Z,71.03
2023-03-03T13:36:07.657Z,73.57
2023-03-03T13:38:42.288Z,74.22
2023-03-03T13:41:26.944Z,79.07
2023-03-03T13:44:06.552Z,90.97
2023-03-03T13:46:33.767Z,94.32
2023-03-03T13:49:05.469Z,87.78
2023-03-03T13:51:32.309Z,101.57
2023-03-03T13:54:14.104Z,90.25
2023-03-03T13:56:40.793Z,107.65
2023-03-03T13:59:26.318Z,98.53
2023-03-03T14:01:53.128Z,96.07
2023-03-03T14:04:38.453Z,98.93
2023-03-03T14:07:18.345Z,90.75
2023-03-03T14:10:08.279Z,91.18
2023-03-03T14:12:47.177Z,91.25
2023-03-03T14:15:32.169Z,75.03
2023-03-03T14:18:06.313Z,68.78
2023-03-03T14:20:54.417Z,82.07
2023-03-03T14:23:24.399Z,77.95
2023-03-03T14:25:53.709Z,86.60
2023-03-03T14:28:22.107Z,89.63
2023-03-03T14:30:49.488Z,76.20
2023-03-03T14:33:18.999Z,75.90
2023-03-03T14:35:54.960Z,74.90
2023-03-03T14:38:24.306Z,68.53
2023-03-03T14:41:04.417Z,76.68
2023-03-03T14:43:38.373Z,79.97
2023-03-03T14:46:29.479Z,76.32
2023-03-03T14:48:57.968Z,75.88
2023-03-03T14:51:26.238Z,69.85
2023-03-03T14:53:53.142Z,79.32
2023-03-03T14:56:26.029Z,80.75
2023-03-03T14:58:54.334Z,86.28
2023-03-03T15:01:25.039Z,77.35
2023-03-03T15:04:14.729Z,76.55
2023-03-03T15:06:45.551Z,74.97
2023-03-03T15:09:24.528Z,70.20
2023-03-03T15:11:55.166Z,74.82
2023-03-03T15:14:32.689Z,70.53
2023-03-03T15:17:13.903Z,69.60
2023-03-03T15:19:49.037Z,70.10
2023-03-03T15:22:21.717Z,69.20
2023-03-03T15:25:11.567Z,65.22
2023-03-03T15:27:42.048Z,64.95
2023-03-03T15:30:15.424Z,62.35
2023-03-03T15:32:48.211Z,66.45
2023-03-03T15:35:33.791Z,66.00
2023-03-03T15:38:03.814Z,70.63
2023-03-03T15:40:37.450Z,72.82
2023-03-03T15:43:10.519Z,70.05
2023-03-03T15:45:43.239Z,76.03
2023-03-03T15:48:28.150Z,69.97
2023-03-03T15:50:57.679Z,71.47
2023-03-03T15:53:32.690Z,72.57
2023-03-03T15:56:02.520Z,60.40
2023-03-03T15:58:55.508Z,68.00
2023-03-03T16:01:22.508Z,62.47
2023-03-03T16:04:07.325Z,62.35
2023-03-03T16:06:38.248Z,68.65
2023-03-03T16:09:14.417Z,59.45
2023-03-03T16:11:47.370Z,66.88
2023-03-03T16:14:37.721Z,68.13
2023-03-03T16:17:23.182Z,67.60
2023-03-03T16:20:11.049Z,64.07
2023-03-03T16:22:58.633Z,68.72
2023-03-03T16:25:40.616Z,67.95
2023-03-03T16:28:10.440Z,65.45
2023-03-03T16:30:47.228Z,64.25
2023-03-03T16:33:44.225Z,64.50
2023-03-03T16:36:29.716Z,63.50
2023-03-03T16:39:03.234Z,62.47
2023-03-03T16:41:37.206Z,62.95
2023-03-03T16:44:12.413Z,69.80
2023-03-03T16:46:41.397Z,65.60
2023-03-03T16:49:08.092Z,59.92
2023-03-03T16:51:49.470Z,67.07
2023-03-03T16:54:35.063Z,63.35
2023-03-03T16:57:02.056Z,64.80
2023-03-03T16:59:36.298Z,63.65
2023-03-03T17:02:08.690Z,68.07
2023-03-03T17:04:44.689Z,71.97
2023-03-03T17:07:20.838Z,74.45
2023-03-03T17:10:16.290Z,72.50
2023-03-03T17:13:01.523Z,49.67
2023-03-03T17:15:29.340Z,69.35
2023-03-03T17:18:01.565Z,70.70
2023-03-03T17:20:34.461Z,64.97
2023-03-03T17:23:01.253Z,75.35
2023-03-03T17:25:42.253Z,71.93
2023-03-03T17:28:27.396Z,67.75
2023-03-03T17:30:54.244Z,62.65
2023-03-03T17:33:39.520Z,75.15
2023-03-03T17:36:18.259Z,74.40
2023-03-03T17:38:47.998Z,75.47
2023-03-03T17:41:20.281Z,80.63
2023-03-03T17:43:59.329Z,75.65
2023-03-03T17:46:39.573Z,74.78
2023-03-03T17:49:12.029Z,80.22
2023-03-03T17:51:53.821Z,73.78
2023-03-03T17:54:32.620Z,75.18
2023-03-03T17:57:11.060Z,80.75
2023-03-03T17:59:56.143Z,81.57
2023-03-03T18:02:22.738Z,86.53
2023-03-03T18:05:07.456Z,79.15
2023-03-03T18:07:40.729Z,78.85
2023-03-03T18:10:07.382Z,74.47
2023-03-03T18:12:37.188Z,78.25
2023-03-03T18:15:03.625Z,81.63
2023-03-03T18:17:33.103Z,70.15
2023-03-03T18:20:18.474Z,84.65
2023-03-03T18:22:46.519Z,82.03
2023-03-03T18:25:17.602Z,82.25
2023-03-03T18:27:45.089Z,80.78
2023-03-03T18:30:17.737Z,80.90
2023-03-03T18:32:44.599Z,86.20
2023-03-03T18:35:25.208Z,82.82
2023-03-03T18:37:52.693Z,90.47
2023-03-03T18:40:22.216Z,85.55
2023-03-03T18:42:53.848Z,81.35
2023-03-03T18:45:20.465Z,83.53
2023-03-03T18:48:05.599Z,92.25
2023-03-03T18:50:33.951Z,97.22
2023-03-03T18:53:23.912Z,89.65
2023-03-03T18:55:53.886Z,102.18
2023-03-03T18:58:20.501Z,89.45
2023-03-03T19:00:47.177Z,92.88
2023-03-03T19:03:28.883Z,89.53
2023-03-03T19:05:57.889Z,94.60
2023-03-03T19:08:26.680Z,101.03
2023-03-03T19:10:56.329Z,86.68
2023-03-03T19:13:32.178Z,95.63
2023-03-03T19:16:00.046Z,96.18
2023-03-03T19:18:55.647Z,96.00
2023-03-03T19:21:25.173Z,92.55
2023-03-03T19:24:04.497Z,94.95
2023-03-03T19:26:39.765Z,104.88
2023-03-03T19:31:37.235Z,87.00
2023-03-03T19:34:09.826Z,105.85
2023-03-03T19:36:42.340Z,97.78
2023-03-03T19:39:08.873Z,102.18
2023-03-03T19:41:42.839Z,110.55
2023-03-03T19:44:28.371Z,97.03
2023-03-03T19:47:03.538Z,100.22
2023-03-03T19:52:02.951Z,86.90
2023-03-03T19:54:49.659Z,101.93
2023-03-03T19:57:25.115Z,91.47
2023-03-03T20:00:03.482Z,93.28
2023-03-03T20:02:49.671Z,116.38
2023-03-03T20:05:21.134Z,113.03
2023-03-03T20:08:01.363Z,108.45
2023-03-03T20:10:39.070Z,114.07
2023-03-03T20:13:24.270Z,108.88
2023-03-03T20:15:56.707Z,115.55
2023-03-03T20:18:32.122Z,111.97
2023-03-03T20:21:01.745Z,113.40
2023-03-03T20:23:33.020Z,116.53
2023-03-03T20:26:18.114Z,113.82
2023-03-03T20:28:44.551Z,72.90
2023-03-03T20:31:19.029Z,98.15
2023-03-03T20:33:50.445Z,103.93
2023-03-03T20:36:25.842Z,96.85
2023-03-03T20:41:26.261Z,101.88
2023-03-03T20:43:59.249Z,98.15
2023-03-03T20:46:28.624Z,110.32
2023-03-03T20:48:55.114Z,97.97
2023-03-03T20:51:35.142Z,97.25
2023-03-03T20:54:01.743Z,92.13
2023-03-03T20:56:47.004Z,85.63
2023-03-03T20:59:18.212Z,88.88
2023-03-03T21:01:47.763Z,93.18
2023-03-03T21:04:25.017Z,92.32
2023-03-03T21:06:51.714Z,84.85
2023-03-03T21:09:41.341Z,83.47
2023-03-03T21:12:30.749Z,92.35
2023-03-03T21:15:16.152Z,76.55
2023-03-03T21:17:42.711Z,71.55
2023-03-03T21:20:18.574Z,79.82
2023-03-03T21:22:45.506Z,85.38
2023-03-03T21:25:12.505Z,77.35
2023-03-03T21:27:39.078Z,82.72
2023-03-03T21:30:15.284Z,78.20
2023-03-03T21:32:45.621Z,78.53
2023-03-03T21:35:14.074Z,75.50
2023-03-03T21:37:43.752Z,71.63
2023-03-03T21:40:14.780Z,74.97
2023-03-03T21:42:42.458Z,67.40
2023-03-03T21:45:09.631Z,70.82
2023-03-03T21:47:36.226Z,65.38
2023-03-03T21:50:03.341Z,73.53
2023-03-03T21:52:29.875Z,63.38
2023-03-03T21:54:56.431Z,72.30
2023-03-03T21:57:22.953Z,74.55
2023-03-03T21:59:49.692Z,60.42
2023-03-03T22:02:16.319Z,62.28
2023-03-03T22:04:42.951Z,74.97
2023-03-03T22:07:09.802Z,67.03
2023-03-03T22:09:36.940Z,75.63
2023-03-03T22:12:04.096Z,78.07
2023-03-03T22:14:30.844Z,73.82
2023-03-03T22:16:57.397Z,78.63
2023-03-03T22:19:23.902Z,78.43
2023-03-03T22:21:50.393Z,76.07
2023-03-03T22:24:17.352Z,80.15
2023-03-03T22:26:44.270Z,84.20
2023-03-03T22:29:10.948Z,81.82
2023-03-03T22:31:37.527Z,84.35
2023-03-03T22:34:04.723Z,82.93
2023-03-03T22:36:31.316Z,72.32
2023-03-03T22:38:57.712Z,73.97
2023-03-03T22:41:24.240Z,71.03
2023-03-03T22:43:50.746Z,61.15
2023-03-03T22:46:17.259Z,64.80
2023-03-03T22:48:43.847Z,62.80
2023-03-03T22:51:12.709Z,64.07
2023-03-03T22:53:39.249Z,60.58
2023-03-03T22:56:05.919Z,61.30
2023-03-03T22:58:32.458Z,56.75
2023-03-03T23:00:59.067Z,55.33
2023-03-03T23:03:25.970Z,52.58
2023-03-03T23:05:52.685Z,47.70
2023-03-03T23:08:20.368Z,53.20
2023-03-03T23:10:47.807Z,48.05
2023-03-03T23:13:16.017Z,49.33
2023-03-03T23:15:42.791Z,47.10
2023-03-03T23:18:09.382Z,48.58
2023-03-03T23:20:35.949Z,52.17
2023-03-03T23:23:03.093Z,43.13
2023-03-03T23:25:29.790Z,47.05
2023-03-03T23:27:56.686Z,47.70
2023-03-03T23:30:23.491Z,45.55
2023-03-03T23:32:50.417Z,39.63
2023-03-03T23:35:17.009Z,47.20
2023-03-03T23:37:43.606Z,41.95
2023-03-03T23:40:10.497Z,38.78
2023-03-03T23:42:37.188Z,39.28
2023-03-03T23:45:04.329Z,45.45
2023-03-03T23:47:30.799Z,39.00
2023-03-03T23:49:57.375Z,41.47
2023-03-03T23:52:23.975Z,41.63
2023-03-03T23:54:50.502Z,39.30
2023-03-03T23:57:17.028Z,41.63
2023-03-03T23:59:43.551Z,43.47
